Tiempo atmosférico en la estación meteorológica de Cabrales, Asturias (458 m.)



Fecha
DESCASC
Temp. máxima en grados centígrados (hora)
DESCASC
Temp. mínima en grados centígrados (hora)
DESCASC
Temp. media en grados centígrados
DESCASC
Racha de viento máxima en m/sg (hora)
DESCASC
Velocidad máxima media en intervalos de 10 minutos(hora)
DESCASC
Precipitaciones diarias en mm
DESCASC
Precipitaciones de 00:00 a 06:00 en mm
DESCASC
Precipitaciones de 06:00 a 12:00 en mm
DESCASC
Precipitaciones de 12:00 a 18:00 en mm
DESCASC
Precipitaciones de 18:00 a 24:00 en mm
DESCASC
26-03-2020 13.7 (15:50) 4.3 (07:20) 9 9.17 (18:50) 5.28 (18:50) 0 0 0 0 0
25-03-2020 17.3 (14:00) 6.6 (23:10) 11.9 9.17 (16:20) 6.67 (16:00) 0 0 0 0 0
24-03-2020 18.8 (15:10) 6.8 (06:50) 12.8 12.22 (14:30) 8.33 (14:30) 0 0 0 0 0
23-03-2020 15.9 (12:40) 8.7 (04:50) 12.3 7.78 (15:00) 4.72 (13:30) 0 0 0 0 0
22-03-2020 16.3 (13:20) 8.4 (06:30) 12.3 7.78 (15:20) 5.28 (17:50) 0 0 0 0 0
21-03-2020 19.6 (13:30) 8.7 (00:00) 14.2 7.78 (14:50) 5.28 (14:50) 0 0 0 0 0
20-03-2020 17.1 (15:10) 7.9 (00:00) 12.5 3.06 (11:50) 2.22 (11:50) 0.2 0.2 0 0 0
19-03-2020 20.1 (14:00) 7.1 (00:00) 13.6 3.33 (14:20) 2.22 (14:20) 0.2 0 0.2 0 0
18-03-2020 19.7 (14:50) 5.8 (00:00) 12.8 4.44 (17:30) 3.33 (19:00) 0 0 0 0 0
17-03-2020 14.7 (12:40) 5.1 (00:00) 9.9 8.61 (14:10) 5.83 (13:50) 0.4 0.2 0 0.2 0
16-03-2020 9.6 (14:50) 0.9 (00:00) 5.3 6.94 (16:40) 5 (16:40) 18.6 7.2 4.6 4.2 2.6
15-03-2020 14.6 (15:10) 1.6 (00:00) 8.1 13.89 (16:00) 10 (17:20) 6.4 0 0 1.6 4.8
14-03-2020 16.3 (16:20) 6.4 (00:00) 11.3 6.11 (19:20) 4.17 (19:20) 0 0 0 0 0
13-03-2020 10.8 (16:20) 6.5 (08:30) 8.7 10.56 (09:00) 6.39 (08:10) 0.2 0 0.2 0 0
12-03-2020 11.5 (13:10) 8 (00:00) 9.8 10.28 (15:00) 7.5 (15:10) 2.6 0.2 1.2 0.6 0.6
11-03-2020 20.8 (14:50) 7 (00:00) 13.9 5 (19:50) 3.89 (19:30) 0 0 0 0 0
10-03-2020 18.7 (16:00) 5.5 (00:00) 12.1 5.83 (19:10) 4.17 (18:30) 0 0 0 0 0
09-03-2020 14.1 (16:40) 7.1 (00:00) 10.6 11.67 (06:30) 8.06 (12:00) 0.6 0.6 0 0 0
08-03-2020 17.6 (14:00) 4.6 (00:00) 11.1 11.67 (20:00) 8.06 (20:00) 0.6 0 0 0 0.6
07-03-2020 13.9 (16:00) 5.3 (00:00) 9.6 11.11 (12:00) 6.11 (12:00) 0.8 0.4 0.4 0 0
06-03-2020 7.2 (00:40) 3.1 (00:00) 5.1 24.72 (09:30) 17.22 (09:20) 15.4 2.6 5.4 5.6 1.8
05-03-2020 18 (05:30) 5.5 (00:00) 11.8 23.06 (13:10) 15.28 (14:00) 11.2 0 7.4 2.2 1.6
04-03-2020 20.7 (13:50) 8.9 (00:00) 14.8 7.78 (06:50) 5 (06:50) 2.8 2.8 0 0 0
03-03-2020 18.5 (11:10) 4 (00:00) 11.3 29.17 (12:40) 19.72 (12:40) 6 2.6 3.2 0 0.2
02-03-2020 8.2 (00:00) 3 (00:00) 5.6 25.28 (14:40) 17.5 (06:40) 32.2 18.8 9.4 3.8 0.2
01-03-2020 18.1 (14:40) 5.7 (00:00) 11.9 26.67 (06:50) 15.28 (06:50) 1.6 0 0 0 1.6
29-02-2020 18.3 (05:10) 8.1 (00:00) 13.2 32.22 (03:00) 19.44 (03:00) 0 0 0 0 0
28-02-2020 18.8 (14:10) 6.7 (00:00) 12.7 17.22 (22:50) 7.5 (22:20) 0 0 0 0 0

Gráficas

Temp. máximas Temp. mínimas Temp. medias Precipitaciones Rachas de viento máximas Velocidades máximas media en intervalos de 10 minutos

Datos horarios

Fecha y hora oficial Temperatura (ºC) Velocidad del viento (km/h) Dirección del viento Racha (km/h) Dirección de racha Precipitación (mm) Presión (hPa) Tendencia (hPa) Humedad (%)
2020-03-28 23:00:00 6.8 6 Sudeste 12 Sudeste 0 -- -- 95
2020-03-28 22:00:00 7 4 Este 10 Este 0 -- -- 92
2020-03-28 21:00:00 7.6 9 Sudeste 20 Este 0 -- -- 88
2020-03-28 20:00:00 8.6 14 Sudeste 23 Sudeste 0 -- -- 83
2020-03-28 19:00:00 11.4 13 Sudeste 26 Este 0 -- -- 68
2020-03-28 18:00:00 14.5 11 Sudeste 27 Este 0 -- -- 57
2020-03-28 17:00:00 15.1 12 Oeste 23 Oeste 0 -- -- 58
2020-03-28 16:00:00 15.8 15 Oeste 28 Oeste 0 -- -- 55
2020-03-28 15:00:00 16 18 Oeste 28 Oeste 0 -- -- 57
2020-03-28 14:00:00 15.7 15 Noroeste 22 Oeste 0 -- -- 56
2020-03-28 13:00:00 15.4 10 Oeste 18 Noroeste 0 -- -- 56
2020-03-28 12:00:00 14.3 5 Oeste 11 Noroeste 0 -- -- 54
2020-03-28 11:00:00 12.3 4 Oeste 8 Oeste 0 -- -- 67
2020-03-28 10:00:00 9.1 0 Calma 4 Sudoeste 0 -- -- 73
2020-03-28 09:00:00 5.9 0 Calma 4 Oeste 0 -- -- 88
2020-03-28 08:00:00 4.4 0 Calma 3 Sudoeste 0 -- -- 90
2020-03-28 07:00:00 4.1 0 Calma 4 Oeste 0 -- -- 90
2020-03-28 06:00:00 4.4 2 Noroeste 4 Oeste 0 -- -- 90
2020-03-28 05:00:00 4.3 0 Calma 5 Sudoeste 0 -- -- 93
2020-03-28 04:00:00 4.6 4 Oeste 5 Oeste 0 -- -- 92
2020-03-28 03:00:00 4.4 3 Oeste 6 Sudoeste 0 -- -- 94
2020-03-28 02:00:00 4.6 0 Calma 2 Sudeste 0 -- -- 93
2020-03-28 01:00:00 4.8 0 Calma 2 Sudeste 0 -- -- 93
2020-03-28 00:00:00 5.1 0 Calma 4 Este 0 -- -- 93
2020-03-27 23:00:00 5.2 3 Este 5 Sudeste 0 -- -- 91
2020-03-27 22:00:00 5.7 5 Sudeste 17 Este 0 -- -- 90
2020-03-27 21:00:00 6.2 10 Sudeste 19 Sudeste 0 -- -- 87
2020-03-27 20:00:00 7.1 7 Sudeste 25 Este 0 -- -- 82
2020-03-27 19:00:00 9.2 15 Este 37 Este 0 -- -- 75
2020-03-27 18:00:00 9.9 24 Este 39 Este 0 -- -- 72
2020-03-27 17:00:00 10.2 21 Este 41 Sudeste 0 -- -- 71
2020-03-27 16:00:00 11.8 17 Nordeste 36 Este 0 -- -- 65
2020-03-27 15:00:00 11.6 22 Este 43 Este 0 -- -- 63
2020-03-27 14:00:00 13 22 Este 41 Este 0 -- -- 57
2020-03-27 13:00:00 13.4 14 Este 31 Este 0 -- -- 51
2020-03-27 12:00:00 12.1 12 Este 24 Este 0 -- -- 51
2020-03-27 11:00:00 10.6 10 Sudeste 23 Sudeste 0 -- -- 53
2020-03-27 10:00:00 6.9 4 Sudoeste 10 Sur 0 -- -- 64
2020-03-27 09:00:00 4 4 Este 10 Este 0 -- -- 82
2020-03-27 08:00:00 2.5 2 Este 5 Sudoeste 0 -- -- 83
2020-03-27 07:00:00 2.3 0 Calma 8 Sudeste 0 -- -- 84
2020-03-27 06:00:00 2.4 9 Sudeste 12 Sudeste 0 -- -- 85
2020-03-27 05:00:00 3.3 8 Sudeste 11 Sudeste 0 -- -- 80
2020-03-27 04:00:00 3.2 2 Sudeste 7 Este 0 -- -- 82
2020-03-27 03:00:00 3.7 5 Sudeste 7 Sudeste 0 -- -- 79
2020-03-27 02:00:00 3.9 2 Este 5 Nordeste 0 -- -- 79
2020-03-27 01:00:00 4.2 4 Sudeste 13 Sudeste 0 -- -- 77
2020-03-27 00:00:00 4.9 7 Este 14 Este 0 -- -- 79
2020-03-26 23:00:00 5.4 5 Sudeste 8 Sudeste 0 -- -- 76
2020-03-26 22:00:00 5.9 5 Sudoeste 13 Norte 0 -- -- 78
2020-03-26 21:00:00 5.9 6 Norte 24 Nordeste 0 -- -- 77
2020-03-26 20:00:00 6.9 13 Norte 29 Norte 0 -- -- 75
2020-03-26 19:00:00 7.8 15 Noroeste 33 Norte 0 -- -- 73
2020-03-26 18:00:00 9.7 14 Norte 29 Norte 0 -- -- 66
2020-03-26 17:00:00 9.7 14 Noroeste 28 Noroeste 0 -- -- 64
2020-03-26 16:00:00 13 15 Norte 32 Norte 0 -- -- 54
2020-03-26 15:00:00 11.7 10 Oeste 21 Norte 0 -- -- 52
2020-03-26 14:00:00 12.5 11 Norte 22 Noroeste 0 -- -- 53
2020-03-26 13:00:00 10.7 14 Noroeste 27 Norte 0 -- -- 63
2020-03-26 12:00:00 10.3 9 Noroeste 21 Noroeste 0 -- -- 66
2020-03-26 11:00:00 8.9 9 Noroeste 24 Norte 0 -- -- 73
2020-03-26 10:00:00 9.2 14 Norte 25 Norte 0 -- -- 77
2020-03-26 09:00:00 6 9 Norte 18 Norte 0 -- -- 95
2020-03-26 08:00:00 4.5 11 Noroeste 15 Noroeste 0 -- -- 97
2020-03-26 07:00:00 4.6 9 Noroeste 14 Oeste 0 -- -- 96
2020-03-26 06:00:00 5.4 10 Noroeste 20 Oeste 0 -- -- 93
2020-03-26 05:00:00 5.8 12 Oeste 19 Oeste 0 -- -- 93
2020-03-26 04:00:00 6 13 Noroeste 17 Noroeste 0 -- -- 94
2020-03-26 03:00:00 6.2 8 Oeste 17 Oeste 0 -- -- 91
2020-03-26 02:00:00 6.5 7 Oeste 15 Sudoeste 0 -- -- 90
2020-03-26 01:00:00 6.7 10 Oeste 17 Oeste 0 -- -- 91
2020-03-26 00:00:00 6.8 11 Oeste 17 Oeste 0 -- -- 94
2020-03-25 23:00:00 6.7 11 Oeste 21 Oeste 0 -- -- 94
2020-03-25 22:00:00 7.3 12 Oeste 16 Oeste 0 -- -- 89
2020-03-25 21:00:00 8 12 Oeste 19 Oeste 0 -- -- 89
2020-03-25 20:00:00 9.3 13 Noroeste 21 Noroeste 0 -- -- 85
2020-03-25 19:00:00 12.5 14 Noroeste 22 Noroeste 0 -- -- 65
2020-03-25 18:00:00 14.3 15 Oeste 28 Oeste 0 -- -- 61
2020-03-25 17:00:00 15.4 17 Oeste 33 Oeste 0 -- -- 62
2020-03-25 16:00:00 15.3 24 Oeste 32 Oeste 0 -- -- 67
2020-03-25 15:00:00 17 19 Oeste 28 Noroeste 0 -- -- 66
2020-03-25 14:00:00 17.3 14 Noroeste 26 Oeste 0 -- -- 53
2020-03-25 13:00:00 16.6 13 Noroeste 22 Noroeste 0 -- -- 54
2020-03-25 12:00:00 16.9 7 Sudoeste 16 Oeste 0 -- -- 56
2020-03-25 11:00:00 14.8 5 Oeste 8 Oeste 0 -- -- 58
2020-03-25 10:00:00 11.6 3 Sudoeste 5 Sudoeste 0 -- -- 74
2020-03-25 09:00:00 8.3 3 Sudoeste 4 Sudoeste 0 -- -- 86
2020-03-25 08:00:00 6.9 0 Calma 4 Este 0 -- -- 89
2020-03-25 07:00:00 6.8 3 Este 5 Este 0 -- -- 91
2020-03-25 06:00:00 7.4 2 Este 5 Nordeste 0 -- -- 89
2020-03-25 05:00:00 7.9 3 Nordeste 5 Nordeste 0 -- -- 92
2020-03-25 04:00:00 8.1 0 Calma 10 Sudeste 0 -- -- 95
2020-03-25 03:00:00 8.1 3 Este 6 Sudeste 0 -- -- 94
2020-03-25 02:00:00 8.4 0 Calma 6 Sudeste 0 -- -- 94
2020-03-25 01:00:00 9 3 Sudeste 17 Sudeste 0 -- -- 94
2020-03-25 00:00:00 9.6 14 Sudeste 18 Sudeste 0 -- -- 93
2020-03-24 23:00:00 10.3 13 Sudeste 17 Este 0 -- -- 91
2020-03-24 22:00:00 11 9 Sudeste 13 Sudeste 0 -- -- 88
2020-03-24 21:00:00 11.5 8 Sudeste 18 Sudeste 0 -- -- 86
2020-03-24 20:00:00 12.5 9 Sudeste 23 Este 0 -- -- 81
2020-03-24 19:00:00 14.9 12 Este 31 Este 0 -- -- 71
2020-03-24 18:00:00 16.5 16 Este 36 Este 0 -- -- 63
2020-03-24 17:00:00 17.5 21 Este 40 Este 0 -- -- 60
2020-03-24 16:00:00 18.1 22 Este 43 Este 0 -- -- 61
2020-03-24 15:00:00 18.5 26 Este 44 Este 0 -- -- 59
2020-03-24 14:00:00 18.5 27 Este 39 Sudeste 0 -- -- 59
2020-03-24 13:00:00 18.7 18 Este 32 Este 0 -- -- 60
2020-03-24 12:00:00 16.5 6 Este 14 Sudeste 0 -- -- 65
2020-03-24 11:00:00 13.6 2 Sur 8 Sudeste 0 -- -- 94
2020-03-24 10:00:00 9.7 3 Sudeste 7 Sudeste 0 -- -- 100
2020-03-24 09:00:00 7.8 0 Calma 5 Sudoeste 0 -- -- 100
2020-03-24 08:00:00 7.1 0 Calma 5 Sudeste 0 -- -- 100
2020-03-24 07:00:00 6.8 3 Este 5 Sudoeste 0 -- -- 100
2020-03-24 06:00:00 7.5 3 Sudoeste 5 Sudoeste 0 -- -- 100
2020-03-24 05:00:00 8 2 Norte 6 Nordeste 0 -- -- 100
2020-03-24 04:00:00 8.3 3 Oeste 5 Noroeste 0 -- -- 100
2020-03-24 03:00:00 9 0 Calma 5 Oeste 0 -- -- 100
2020-03-24 02:00:00 9.3 2 Oeste 4 Oeste 0 -- -- 100
2020-03-24 01:00:00 9.4 3 Oeste 8 Sudeste 0 -- -- 100
2020-03-24 00:00:00 9.4 6 Sudeste 14 Sudeste 0 -- -- 100
2020-03-23 23:00:00 9.4 5 Sudeste 16 Este 0 -- -- 100
2020-03-23 22:00:00 9.4 8 Este 16 Este 0 -- -- 99
2020-03-23 21:00:00 9.3 0 Calma 24 Sudeste 0 -- -- 97
2020-03-23 20:00:00 9.3 12 Este 24 Este 0 -- -- 95
2020-03-23 19:00:00 9.4 13 Este 27 Sudeste 0 -- -- 96
2020-03-23 18:00:00 9.6 10 Este 25 Este 0 -- -- 96
2020-03-23 17:00:00 10 13 Este 25 Este 0 -- -- 94
2020-03-23 16:00:00 11 13 Sudeste 26 Sudeste 0 -- -- 90
2020-03-23 15:00:00 12.6 17 Este 28 Este 0 -- -- 82
2020-03-23 14:00:00 13.7 16 Sudeste 27 Este 0 -- -- 77
2020-03-23 13:00:00 15.7 7 Sudeste 15 Sudeste 0 -- -- 70
2020-03-23 12:00:00 13.3 4 Sudeste 18 Este 0 -- -- 78
2020-03-23 11:00:00 12.7 8 Este 16 Sudeste 0 -- -- 85
2020-03-23 10:00:00 9.8 6 Sudeste 12 Sudeste 0 -- -- 98
2020-03-23 09:00:00 9.2 8 Sudeste 12 Este 0 -- -- 100
2020-03-23 08:00:00 8.9 4 Este 7 Sudeste 0 -- -- 100
2020-03-23 07:00:00 8.8 0 Calma 3 Oeste 0 -- -- 100
2020-03-23 06:00:00 8.9 0 Calma 4 Sudeste 0 -- -- 100
2020-03-23 05:00:00 8.7 3 Este 4 Este 0 -- -- 99
2020-03-23 04:00:00 9.1 4 Sudeste 6 Sudeste 0 -- -- 100
2020-03-23 03:00:00 9.1 2 Oeste 5 Sudoeste 0 -- -- 99
2020-03-23 02:00:00 9.2 4 Oeste 6 Sudoeste 0 -- -- 99
2020-03-23 01:00:00 9.4 4 Oeste 6 Oeste 0 -- -- 98
2020-03-23 00:00:00 9.8 3 Sur 6 Sudoeste 0 -- -- 96
2020-03-22 23:00:00 9.9 4 Sudoeste 9 Sudoeste 0 -- -- 96
2020-03-22 22:00:00 10 7 Sudoeste 9 Noroeste 0 -- -- 94
2020-03-22 21:00:00 10.1 6 Oeste 18 Sudoeste 0 -- -- 90
2020-03-22 20:00:00 10.2 12 Oeste 22 Oeste 0 -- -- 89
2020-03-22 19:00:00 10.5 15 Oeste 24 Oeste 0 -- -- 89
2020-03-22 18:00:00 11.8 18 Oeste 27 Oeste 0 -- -- 85
2020-03-22 17:00:00 14.3 18 Oeste 26 Sudoeste 0 -- -- 76
2020-03-22 16:00:00 15.6 14 Oeste 28 Oeste 0 -- -- 75
2020-03-22 15:00:00 15.7 17 Oeste 26 Oeste 0 -- -- 73
2020-03-22 14:00:00 16.3 16 Noroeste 24 Noroeste 0 -- -- 72
2020-03-22 13:00:00 15.7 7 Oeste 16 Sudoeste 0 -- -- 68
2020-03-22 12:00:00 14.6 8 Oeste 13 Oeste 0 -- -- 72
2020-03-22 11:00:00 12.2 3 Oeste 8 Noroeste 0 -- -- 95
2020-03-22 10:00:00 10 0 Calma 9 Oeste 0 -- -- 100
2020-03-22 09:00:00 8.9 7 Oeste 10 Noroeste 0 -- -- 100
2020-03-22 08:00:00 8.6 7 Noroeste 10 Noroeste 0 -- -- 100
2020-03-22 07:00:00 8.4 7 Noroeste 14 Noroeste 0 -- -- 100
2020-03-22 06:00:00 8.6 8 Noroeste 17 Oeste 0 -- -- 100
2020-03-22 05:00:00 8.7 8 Noroeste 12 Noroeste 0 -- -- 100
2020-03-22 04:00:00 8.8 6 Oeste 12 Oeste 0 -- -- 100
2020-03-22 03:00:00 8.7 0 Calma 4 Oeste 0 -- -- 100
2020-03-22 02:00:00 8.8 2 Oeste 19 Oeste 0 -- -- 100
2020-03-22 01:00:00 8.9 14 Oeste 23 Oeste 0 -- -- 100
2020-03-22 00:00:00 9.1 4 Oeste 5 Oeste 0 -- -- 100
2020-03-21 23:00:00 9.2 0 Calma 7 Noroeste 0 -- -- 100
2020-03-21 22:00:00 9.2 6 Oeste 12 Oeste 0 -- -- 100
2020-03-21 21:00:00 9 9 Oeste 18 Oeste 0 -- -- 99
2020-03-21 20:00:00 9.7 13 Oeste 16 Oeste 0 -- -- 95
2020-03-21 19:00:00 13.3 5 Sudoeste 23 Sudeste 0 -- -- 79
2020-03-21 18:00:00 16.6 14 Este 25 Este 0 -- -- 66
2020-03-21 17:00:00 17.5 8 Oeste 18 Oeste 0 -- -- 65
2020-03-21 16:00:00 18.6 10 Oeste 24 Oeste 0 -- -- 58
2020-03-21 15:00:00 18.2 18 Oeste 28 Sudoeste 0 -- -- 57
2020-03-21 14:00:00 19.3 12 Oeste 22 Oeste 0 -- -- 55
2020-03-21 13:00:00 19.1 5 Norte 12 Noroeste 0 -- -- 51
2020-03-21 12:00:00 16.9 2 Oeste 6 Sudoeste 0 -- -- 66
2020-03-21 11:00:00 14.6 0 Calma 6 Sudeste 0 -- -- 79
2020-03-21 10:00:00 12.2 2 Sudoeste 11 Sudeste 0 -- -- 82
2020-03-21 09:00:00 10.3 8 Sudeste 10 Sudeste 0 -- -- 86
2020-03-21 08:00:00 9.3 5 Sudeste 10 Sudeste 0 -- -- 88
2020-03-21 07:00:00 8.8 7 Sudeste 10 Sudeste 0 -- -- 91
2020-03-21 06:00:00 9.2 3 Este 13 Sudeste 0 -- -- 90
2020-03-21 05:00:00 9 5 Sur 15 Sudeste 0 -- -- 94
2020-03-21 04:00:00 8.7 7 Este 10 Sudeste 0 -- -- 96
2020-03-21 03:00:00 9.4 6 Sudeste 10 Sudeste 0 -- -- 95
2020-03-21 02:00:00 9.9 3 Este 5 Sudeste 0 -- -- 91
2020-03-21 01:00:00 10.4 0 Calma 8 Nordeste 0 -- -- 87
2020-03-21 00:00:00 11 3 Noroeste 5 Oeste 0 -- -- 84
2020-03-20 23:00:00 10.6 4 Oeste 6 Noroeste 0 -- -- 87
2020-03-20 22:00:00 11.3 0 Calma 5 Sudoeste 0 -- -- 88
2020-03-20 21:00:00 12 3 Oeste 8 Sur 0 -- -- 85
2020-03-20 20:00:00 12.9 3 Sudeste 8 Oeste 0 -- -- 81
2020-03-20 19:00:00 14.4 6 Oeste 11 Oeste 0 -- -- 67
2020-03-20 18:00:00 15.6 8 Oeste 10 Oeste 0 -- -- 71
2020-03-20 17:00:00 16.9 0 Calma 8 Sudeste 0 -- -- 71
2020-03-20 16:00:00 16.2 5 Sudeste 9 Sudeste 0 -- -- 74
2020-03-20 15:00:00 16.8 5 Sudeste 8 Sudeste 0 -- -- 73
2020-03-20 14:00:00 15.6 3 Sudeste 8 Sur 0 -- -- 81
2020-03-20 13:00:00 14.6 3 Sudeste 9 Nordeste 0 -- -- 85
2020-03-20 12:00:00 12.6 3 Sudeste 11 Sur 0 -- -- 100
2020-03-20 11:00:00 11.1 2 Nordeste 6 Sudoeste 0 -- -- 100
2020-03-20 10:00:00 9.1 2 Sudoeste 8 Oeste 0 -- -- 100
2020-03-20 09:00:00 8.4 3 Este 7 Este 0 -- -- 100
2020-03-20 08:00:00 8 0 Calma 8 Este 0 -- -- 100
2020-03-20 07:00:00 8 3 Este 9 Sudeste 0 -- -- 100
2020-03-20 06:00:00 8.2 0 Calma 5 Sudeste 0 -- -- 100
2020-03-20 05:00:00 8.5 0 Calma 4 Este 0 -- -- 100
2020-03-20 04:00:00 8.6 0 Calma 3 Sudoeste 0.2 -- -- 100
2020-03-20 03:00:00 8.6 3 Oeste 5 Oeste 0 -- -- 100
2020-03-20 02:00:00 8.7 0 Calma 9 Noroeste 0 -- -- 100
2020-03-20 01:00:00 9 3 Oeste 5 Este 0 -- -- 100
2020-03-20 00:00:00 10.1 0 Calma 3 Sudoeste 0 -- -- 100
2020-03-19 23:00:00 10.5 2 Sudoeste 3 Oeste 0 -- -- 99
2020-03-19 22:00:00 10.9 0 Calma 4 Sudoeste 0 -- -- 97
2020-03-19 21:00:00 11.5 4 Sudoeste 7 Noroeste 0 -- -- 96
2020-03-19 20:00:00 12.5 4 Oeste 6 Noroeste 0 -- -- 92
2020-03-19 19:00:00 14.5 0 Calma 9 Oeste 0 -- -- 82
2020-03-19 18:00:00 15.9 3 Oeste 10 Oeste 0 -- -- 76
2020-03-19 17:00:00 17 4 Sudeste 10 Sudeste 0 -- -- 75
2020-03-19 16:00:00 17.9 0 Calma 9 Sudeste 0 -- -- 72
2020-03-19 15:00:00 19.8 7 Sudeste 12 Sudeste 0 -- -- 66
2020-03-19 14:00:00 20.1 7 Sudeste 10 Sudeste 0 -- -- 65
2020-03-19 13:00:00 18.3 2 Nordeste 7 Sur 0 -- -- 71
2020-03-19 12:00:00 16.6 4 Sur 7 Sudeste 0 -- -- 80
2020-03-19 11:00:00 12 2 Sudoeste 6 Sudoeste 0 -- -- 100
2020-03-19 10:00:00 9.8 3 Sudoeste 5 Sudoeste 0 -- -- 100
2020-03-19 09:00:00 7.9 0 Calma 3 Nordeste 0 -- -- 100
2020-03-19 08:00:00 7.3 0 Calma 7 Este 0.2 -- -- 100
2020-03-19 07:00:00 7.2 0 Calma 6 Sudeste 0 -- -- 100
2020-03-19 06:00:00 7.2 4 Este 6 Sudeste 0 -- -- 100
2020-03-19 05:00:00 7.7 3 Sudeste 8 Oeste 0 -- -- 100
2020-03-19 04:00:00 8.7 6 Oeste 8 Oeste 0 -- -- 100
2020-03-19 03:00:00 9.3 0 Calma 6 Sudoeste 0 -- -- 100
2020-03-19 02:00:00 9.9 2 Oeste 5 Sudoeste 0 -- -- 99
2020-03-19 01:00:00 10 0 Calma 7 Oeste 0 -- -- 99
2020-03-19 00:00:00 10.4 4 Sudeste 7 Este 0 -- -- 99
2020-03-18 23:00:00 10.7 2 Nordeste 4 Este 0 -- -- 99
2020-03-18 22:00:00 10.8 3 Sudoeste 5 Sudeste 0 -- -- 97
2020-03-18 21:00:00 11.5 2 Sudeste 12 Sudeste 0 -- -- 95
2020-03-18 20:00:00 12.5 10 Sur 15 Sur 0 -- -- 91
2020-03-18 19:00:00 14.3 12 Sudeste 14 Sudeste 0 -- -- 83
2020-03-18 18:00:00 16.3 11 Sudeste 16 Sudeste 0 -- -- 72
2020-03-18 17:00:00 18.2 10 Sudeste 14 Sudeste 0 -- -- 61
2020-03-18 16:00:00 19.1 7 Sudeste 13 Sudeste 0 -- -- 61
2020-03-18 15:00:00 19.6 8 Sudeste 11 Sudeste 0 -- -- 58
2020-03-18 14:00:00 18.9 4 Sudeste 8 Sudeste 0 -- -- 63
2020-03-18 13:00:00 16.3 3 Nordeste 10 Norte 0 -- -- 78
2020-03-18 12:00:00 13.8 0 Calma 4 Oeste 0 -- -- 92
2020-03-18 11:00:00 11.4 0 Calma 5 Sudoeste 0 -- -- 100
2020-03-18 10:00:00 8.8 0 Calma 5 Sudoeste 0 -- -- 100
2020-03-18 09:00:00 7.1 0 Calma 3 Oeste 0 -- -- 100
2020-03-18 08:00:00 6.1 0 Calma 8 Oeste 0 -- -- 100
2020-03-18 07:00:00 6.1 3 Oeste 6 Sudoeste 0 -- -- 100
2020-03-18 06:00:00 7.1 2 Oeste 4 Oeste 0 -- -- 100
2020-03-18 05:00:00 7.4 0 Calma 8 Oeste 0 -- -- 100
2020-03-18 04:00:00 7.4 6 Oeste 9 Oeste 0 -- -- 100
2020-03-18 03:00:00 7.6 5 Oeste 11 Oeste 0 -- -- 100
2020-03-18 02:00:00 8.1 4 Oeste 7 Oeste 0 -- -- 100
2020-03-18 01:00:00 8.4 7 Sudoeste 12 Oeste 0 -- -- 100
2020-03-18 00:00:00 8.8 4 Oeste 5 Oeste 0 -- -- 100
2020-03-17 23:00:00 8.9 0 Calma 4 Sudoeste 0 -- -- 100
2020-03-17 22:00:00 8.9 3 Oeste 8 Sudoeste 0 -- -- 100
2020-03-17 21:00:00 8.9 6 Oeste 12 Oeste 0 -- -- 100
2020-03-17 20:00:00 8.9 8 Oeste 10 Oeste 0 -- -- 100
2020-03-17 19:00:00 9.1 6 Oeste 11 Oeste 0 -- -- 100
2020-03-17 18:00:00 9.4 10 Oeste 16 Oeste 0 -- -- 97
2020-03-17 17:00:00 11.5 5 Este 25 Este 0 -- -- 89
2020-03-17 16:00:00 12.4 14 Sudeste 30 Sudeste 0 -- -- 86
2020-03-17 15:00:00 12.8 13 Este 31 Este 0.2 -- -- 87
2020-03-17 14:00:00 13.1 17 Este 30 Este 0 -- -- 80
2020-03-17 13:00:00 14.7 9 Este 19 Este 0 -- -- 78
2020-03-17 12:00:00 13.5 10 Este 23 Este 0 -- -- 83
2020-03-17 11:00:00 10.9 9 Este 15 Este 0 -- -- 99
2020-03-17 10:00:00 8.5 3 Nordeste 8 Este 0 -- -- 100
2020-03-17 09:00:00 6.6 2 Sudeste 15 Sudeste 0 -- -- 100
2020-03-17 08:00:00 5.6 6 Sudeste 13 Este 0 -- -- 100
2020-03-17 07:00:00 5.4 0 Calma 6 Sudeste 0 -- -- 100
2020-03-17 06:00:00 5.2 4 Sudeste 12 Este 0 -- -- 100
2020-03-17 05:00:00 5.2 2 Sudeste 5 Sudoeste 0 -- -- 100
2020-03-17 04:00:00 5.1 0 Calma 7 Sudeste 0 -- -- 100
2020-03-17 03:00:00 5.2 3 Sudoeste 7 Sudoeste 0 -- -- 100
2020-03-17 02:00:00 5.1 2 Sudoeste 8 Sudoeste 0 -- -- 100
2020-03-17 01:00:00 5.2 4 Sur 6 Sudoeste 0.2 -- -- 100
2020-03-17 00:00:00 5.2 3 Nordeste 11 Este 0 -- -- 100
2020-03-16 23:00:00 5.3 0 Calma 5 Sudeste 0.4 -- -- 100
2020-03-16 22:00:00 5.3 4 Este 7 Sudeste 0.4 -- -- 100
2020-03-16 21:00:00 5.4 0 Calma 6 Nordeste 0.4 -- -- 100
2020-03-16 20:00:00 5.6 2 Este 9 Sudoeste 0.2 -- -- 100
2020-03-16 19:00:00 5.7 3 Este 13 Sudoeste 1.2 -- -- 98
2020-03-16 18:00:00 6.2 4 Norte 20 Sudoeste 0.6 -- -- 98
2020-03-16 17:00:00 5.9 17 Sudoeste 25 Oeste 0.4 -- -- 96
2020-03-16 16:00:00 7.4 4 Sudeste 18 Norte 0.6 -- -- 89
2020-03-16 15:00:00 8.7 11 Sur 14 Sudeste 0 -- -- 85
2020-03-16 14:00:00 7.5 13 Oeste 20 Oeste 1 -- -- 98
2020-03-16 13:00:00 7.3 7 Sudoeste 18 Sudoeste 1.6 -- -- 100
2020-03-16 12:00:00 6.7 5 Oeste 14 Sudeste 0.4 -- -- 100
2020-03-16 11:00:00 5 10 Oeste 15 Oeste 1 -- -- 100
2020-03-16 10:00:00 4 5 Oeste 16 Noroeste 0.6 -- -- 100
2020-03-16 09:00:00 3.2 6 Noroeste 14 Sudoeste 0.6 -- -- 100
2020-03-16 08:00:00 2.3 0 Calma 10 Sudoeste 0.6 -- -- 100
2020-03-16 07:00:00 2 3 Nordeste 18 Noroeste 1.4 -- -- 100
2020-03-16 06:00:00 1.6 6 Oeste 10 Sudoeste 0 -- -- 100
2020-03-16 05:00:00 1.3 4 Este 13 Oeste 0.8 -- -- 100
2020-03-16 04:00:00 1.1 2 Este 9 Este 1.6 -- -- 100
2020-03-16 03:00:00 1 5 Noroeste 10 Norte 1.4 -- -- 100
2020-03-16 02:00:00 1.1 3 Noroeste 10 Noroeste 1.6 -- -- 100
2020-03-16 01:00:00 1.4 4 Noroeste 10 Noroeste 1.8 -- -- 100
2020-03-16 00:00:00 1.6 5 Norte 22 Norte 1 -- -- 100
2020-03-15 23:00:00 2.2 14 Noroeste 24 Norte 1 -- -- 100
2020-03-15 22:00:00 3.4 9 Noroeste 28 Oeste 0.6 -- -- 100
2020-03-15 21:00:00 3.8 25 Oeste 39 Oeste 0.4 -- -- 99
2020-03-15 20:00:00 4.9 18 Noroeste 33 Noroeste 0.6 -- -- 100
2020-03-15 19:00:00 5 19 Oeste 30 Oeste 1.2 -- -- 99
2020-03-15 18:00:00 5.9 26 Oeste 49 Noroeste 1.4 -- -- 98
2020-03-15 17:00:00 7.4 29 Noroeste 50 Norte 0.2 -- -- 94
2020-03-15 16:00:00 11.5 28 Norte 50 Norte 0 -- -- 78
2020-03-15 15:00:00 14.2 5 Oeste 12 Oeste 0 -- -- 66
2020-03-15 14:00:00 10.5 6 Sudoeste 22 Oeste 0 -- -- 84
2020-03-15 13:00:00 10.4 15 Oeste 30 Oeste 0 -- -- 84
2020-03-15 12:00:00 11.3 21 Oeste 30 Oeste 0 -- -- 82
2020-03-15 11:00:00 11.5 14 Oeste 18 Oeste 0 -- -- 80
2020-03-15 10:00:00 9.9 10 Noroeste 23 Noroeste 0 -- -- 87
2020-03-15 09:00:00 7.5 10 Noroeste 20 Norte 0 -- -- 93
2020-03-15 08:00:00 6.8 13 Noroeste 18 Noroeste 0 -- -- 88
2020-03-15 07:00:00 6.9 12 Noroeste 19 Oeste 0 -- -- 87
2020-03-15 06:00:00 6.9 3 Norte 9 Sudoeste 0 -- -- 90
2020-03-15 05:00:00 6.8 3 Sudeste 12 Sur 0 -- -- 96
2020-03-15 04:00:00 6.2 5 Oeste 9 Sudoeste 0 -- -- 100
2020-03-15 03:00:00 6.2 6 Sudeste 8 Sudeste 0 -- -- 100
2020-03-15 02:00:00 6.4 2 Nordeste 6 Este 0 -- -- 99
2020-03-15 01:00:00 6.4 0 Calma 3 Sudoeste 0 -- -- 99
2020-03-15 00:00:00 6.7 0 Calma 4 Sudoeste 0 -- -- 98
2020-03-14 23:00:00 6.9 0 Calma 7 Sudeste 0 -- -- 98
2020-03-14 22:00:00 7.1 7 Sudeste 18 Sudeste 0 -- -- 97
2020-03-14 21:00:00 7.5 13 Sudeste 20 Sudeste 0 -- -- 95
2020-03-14 20:00:00 8.3 15 Sudeste 22 Este 0 -- -- 90
2020-03-14 19:00:00 11 9 Sudeste 17 Sudeste 0 -- -- 78
2020-03-14 18:00:00 14 4 Sur 16 Sudeste 0 -- -- 69
2020-03-14 17:00:00 15.6 8 Sudeste 17 Sudeste 0 -- -- 64
2020-03-14 16:00:00 16.1 7 Oeste 15 Oeste 0 -- -- 64
2020-03-14 15:00:00 15.9 9 Oeste 17 Oeste 0 -- -- 60
2020-03-14 14:00:00 14 3 Noroeste 12 Oeste 0 -- -- 61
2020-03-14 13:00:00 14.1 4 Oeste 12 Oeste 0 -- -- 60
2020-03-14 12:00:00 12.8 4 Sudoeste 9 Oeste 0 -- -- 63
2020-03-14 11:00:00 11.3 4 Sur 10 Este 0 -- -- 74
2020-03-14 10:00:00 9.3 5 Este 9 Este 0 -- -- 80
2020-03-14 09:00:00 7.4 3 Sudeste 7 Sudeste 0 -- -- 93
2020-03-14 08:00:00 6.9 0 Calma 8 Oeste 0 -- -- 94
2020-03-14 07:00:00 7 5 Oeste 14 Oeste 0 -- -- 89
2020-03-14 06:00:00 7 10 Oeste 15 Oeste 0 -- -- 85
2020-03-14 05:00:00 7.4 4 Oeste 12 Oeste 0 -- -- 84
2020-03-14 04:00:00 7.6 6 Noroeste 12 Oeste 0 -- -- 85
2020-03-14 03:00:00 7.6 7 Oeste 11 Oeste 0 -- -- 91
2020-03-14 02:00:00 7.6 4 Noroeste 8 Oeste 0 -- -- 95
2020-03-14 01:00:00 7.7 3 Oeste 6 Noroeste 0 -- -- 94
2020-03-14 00:00:00 7.7 3 Oeste 8 Sudoeste 0 -- -- 94
2020-03-13 23:00:00 7.7 4 Sudeste 7 Sudeste 0 -- -- 94
2020-03-13 22:00:00 7.7 2 Norte 7 Sudeste 0 -- -- 93
2020-03-13 21:00:00 7.8 3 Sudeste 12 Sudeste 0 -- -- 92
2020-03-13 20:00:00 8 6 Sudeste 15 Nordeste 0 -- -- 91
2020-03-13 19:00:00 8.7 12 Este 22 Sudeste 0 -- -- 89
2020-03-13 18:00:00 9.7 9 Sudeste 14 Sudeste 0 -- -- 87
2020-03-13 17:00:00 10.2 4 Sudeste 10 Sur 0 -- -- 84
2020-03-13 16:00:00 10.7 5 Sudeste 19 Este 0 -- -- 86
2020-03-13 15:00:00 9.9 10 Sudeste 20 Sudeste 0 -- -- 89
2020-03-13 14:00:00 9.5 14 Sudeste 26 Este 0 -- -- 92
2020-03-13 13:00:00 10 5 Este 25 Este 0 -- -- 94
2020-03-13 12:00:00 9.1 14 Este 35 Este 0 -- -- 100
2020-03-13 11:00:00 7.9 9 Sudeste 27 Este 0.2 -- -- 100
2020-03-13 10:00:00 7.3 15 Este 35 Este 0 -- -- 100
2020-03-13 09:00:00 6.6 20 Este 38 Sudeste 0 -- -- 100
2020-03-13 08:00:00 6.6 18 Este 34 Este 0 -- -- 100
2020-03-13 07:00:00 6.8 11 Este 26 Este 0 -- -- 100
2020-03-13 06:00:00 6.8 12 Sudeste 16 Sudeste 0 -- -- 100
2020-03-13 05:00:00 6.9 8 Sudeste 17 Sudeste 0 -- -- 100
2020-03-13 04:00:00 7.1 9 Sudeste 17 Sudeste 0 -- -- 100
2020-03-13 03:00:00 7.4 9 Sudeste 18 Sudeste 0 -- -- 100
2020-03-13 02:00:00 7.6 9 Sudeste 14 Sudeste 0 -- -- 100
2020-03-13 01:00:00 7.8 6 Sudeste 14 Este 0 -- -- 100
2020-03-13 00:00:00 8 6 Sudeste 11 Este 0 -- -- 100
2020-03-12 23:00:00 8.2 3 Sudeste 10 Oeste 0.4 -- -- 100
2020-03-12 22:00:00 8.1 8 Oeste 13 Oeste 0 -- -- 100
2020-03-12 21:00:00 8.2 8 Oeste 16 Oeste 0.2 -- -- 100
2020-03-12 20:00:00 8.4 11 Oeste 17 Oeste 0 -- -- 100
2020-03-12 19:00:00 8.7 10 Oeste 14 Oeste 0 -- -- 100
2020-03-12 18:00:00 9.3 6 Oeste 10 Noroeste 0 -- -- 99
2020-03-12 17:00:00 9.4 9 Noroeste 27 Oeste 0 -- -- 98
2020-03-12 16:00:00 8.9 19 Oeste 36 Sudoeste 0 -- -- 97
2020-03-12 15:00:00 9.5 25 Oeste 37 Sudoeste 0 -- -- 97
2020-03-12 14:00:00 11.2 14 Sudoeste 20 Sudoeste 0.2 -- -- 100
2020-03-12 13:00:00 11.3 8 Oeste 13 Oeste 0.4 -- -- 100
2020-03-12 12:00:00 11 4 Sudoeste 6 Oeste 0 -- -- 100
2020-03-12 11:00:00 10.5 6 Oeste 10 Oeste 0.4 -- -- 100
2020-03-12 10:00:00 9.9 6 Oeste 9 Oeste 0.4 -- -- 100
2020-03-12 09:00:00 9.8 6 Sudoeste 7 Oeste 0.2 -- -- 100
2020-03-12 08:00:00 9.8 0 Calma 4 Oeste 0.2 -- -- 100
2020-03-12 07:00:00 9.7 2 Sudoeste 6 Sudoeste 0 -- -- 100
2020-03-12 06:00:00 9.6 3 Nordeste 4 Nordeste 0.2 -- -- 100
2020-03-12 05:00:00 9.6 0 Calma 3 Sudoeste 0 -- -- 100
2020-03-12 04:00:00 9.6 3 Sur 8 Este 0 -- -- 100
2020-03-12 03:00:00 9.7 0 Calma 0 Calma 0 -- -- 99
2020-03-12 02:00:00 9.7 0 Calma 4 Noroeste 0 -- -- 98
2020-03-12 01:00:00 9.7 2 Norte 8 Noroeste 0 -- -- 98
2020-03-12 00:00:00 9.7 4 Oeste 13 Sudoeste 0 -- -- 98
2020-03-11 23:00:00 9.5 9 Oeste 12 Oeste 0 -- -- 96
2020-03-11 22:00:00 10 5 Sudoeste 14 Oeste 0 -- -- 94
2020-03-11 21:00:00 11 9 Oeste 14 Oeste 0 -- -- 91
2020-03-11 20:00:00 11.8 9 Oeste 18 Oeste 0 -- -- 88
2020-03-11 19:00:00 14.7 8 Sudoeste 12 Oeste 0 -- -- 74
2020-03-11 18:00:00 19.6 3 Oeste 13 Sudoeste 0 -- -- 57
2020-03-11 17:00:00 19.7 9 Sudeste 17 Sudeste 0 -- -- 59
2020-03-11 16:00:00 20.2 13 Sudeste 18 Sudeste 0 -- -- 56
2020-03-11 15:00:00 20.8 8 Sur 13 Sudeste 0 -- -- 52
2020-03-11 14:00:00 20.5 6 Sudeste 12 Sudeste 0 -- -- 55
2020-03-11 13:00:00 19.1 6 Sur 12 Sudeste 0 -- -- 60
2020-03-11 12:00:00 17.3 5 Sudeste 10 Sudeste 0 -- -- 63
2020-03-11 11:00:00 14.5 6 Sudeste 10 Sudeste 0 -- -- 73
2020-03-11 10:00:00 10.2 2 Sudoeste 5 Sudoeste 0 -- -- 87
2020-03-11 09:00:00 8 3 Este 6 Sudeste 0 -- -- 95
2020-03-11 08:00:00 7.4 3 Sudeste 4 Sudeste 0 -- -- 92
2020-03-11 07:00:00 7.6 2 Sudoeste 5 Sudoeste 0 -- -- 93
2020-03-11 06:00:00 7 0 Calma 8 Este 0 -- -- 94
2020-03-11 05:00:00 7.7 2 Nordeste 6 Oeste 0 -- -- 94
2020-03-11 04:00:00 7.1 2 Sudoeste 6 Este 0 -- -- 97
2020-03-11 03:00:00 7.3 3 Sudeste 8 Sudeste 0 -- -- 96
2020-03-11 02:00:00 7.4 6 Sudeste 9 Sudeste 0 -- -- 96
2020-03-11 01:00:00 7.6 8 Sudeste 9 Sudeste 0 -- -- 95
2020-03-11 00:00:00 8.4 0 Calma 8 Sudeste 0 -- -- 93
2020-03-10 23:00:00 9 0 Calma 6 Este 0 -- -- 91
2020-03-10 22:00:00 9.6 5 Sudeste 6 Sudeste 0 -- -- 88
2020-03-10 21:00:00 10 2 Sudeste 13 Sudeste 0 -- -- 86
2020-03-10 20:00:00 10.9 9 Sudeste 21 Sudeste 0 -- -- 81
2020-03-10 19:00:00 12.6 14 Sudeste 20 Sudeste 0 -- -- 78
2020-03-10 18:00:00 14.6 14 Sudeste 19 Sudeste 0 -- -- 74
2020-03-10 17:00:00 17.4 8 Sur 17 Sur 0 -- -- 66
2020-03-10 16:00:00 18.7 6 Sudeste 14 Este 0 -- -- 63
2020-03-10 15:00:00 17.4 5 Este 15 Este 0 -- -- 65
2020-03-10 14:00:00 16.1 3 Nordeste 10 Oeste 0 -- -- 67
2020-03-10 13:00:00 14.7 8 Sudoeste 17 Noroeste 0 -- -- 73
2020-03-10 12:00:00 13.5 3 Nordeste 12 Sudeste 0 -- -- 69
2020-03-10 11:00:00 11.7 6 Sudeste 19 Oeste 0 -- -- 88
2020-03-10 10:00:00 8.7 14 Oeste 19 Oeste 0 -- -- 100
2020-03-10 09:00:00 5.6 6 Oeste 10 Sudeste 0 -- -- 100
2020-03-10 08:00:00 5.5 5 Sudeste 8 Este 0 -- -- 100
2020-03-10 07:00:00 5.8 2 Este 4 Este 0 -- -- 100
2020-03-10 06:00:00 5.8 0 Calma 6 Sudeste 0 -- -- 100
2020-03-10 05:00:00 5.9 3 Este 4 Sudeste 0 -- -- 99
2020-03-10 04:00:00 6.1 2 Oeste 6 Sudeste 0 -- -- 99
2020-03-10 03:00:00 6.5 6 Sudeste 8 Sudeste 0 -- -- 98
2020-03-10 02:00:00 6.6 5 Sudeste 9 Este 0 -- -- 96
2020-03-10 01:00:00 6.9 3 Oeste 8 Sudeste 0 -- -- 96
2020-03-10 00:00:00 7.4 4 Sudeste 9 Sudeste 0 -- -- 95
2020-03-09 23:00:00 7.6 8 Sudeste 13 Sudeste 0 -- -- 94
2020-03-09 22:00:00 8.1 8 Sudeste 10 Sudeste 0 -- -- 91
2020-03-09 21:00:00 8.8 5 Sudeste 10 Sur 0 -- -- 87
2020-03-09 20:00:00 9.7 7 Sur 12 Oeste 0 -- -- 81
2020-03-09 19:00:00 11.1 9 Oeste 19 Oeste 0 -- -- 72
2020-03-09 18:00:00 13.1 9 Noroeste 22 Noroeste 0 -- -- 65
2020-03-09 17:00:00 13.8 12 Noroeste 32 Norte 0 -- -- 62
2020-03-09 16:00:00 13.3 19 Noroeste 35 Oeste 0 -- -- 55
2020-03-09 15:00:00 13.2 18 Noroeste 34 Noroeste 0 -- -- 60
2020-03-09 14:00:00 12.2 22 Noroeste 37 Noroeste 0 -- -- 62
2020-03-09 13:00:00 11.7 22 Noroeste 35 Noroeste 0 -- -- 66
2020-03-09 12:00:00 10.4 29 Noroeste 42 Noroeste 0 -- -- 68
2020-03-09 11:00:00 9.7 22 Noroeste 33 Noroeste 0 -- -- 70
2020-03-09 10:00:00 9.1 17 Noroeste 29 Norte 0 -- -- 70
2020-03-09 09:00:00 8.1 16 Noroeste 37 Noroeste 0 -- -- 72
2020-03-09 08:00:00 7.7 23 Oeste 40 Oeste 0 -- -- 71
2020-03-09 07:00:00 7.7 23 Oeste 42 Oeste 0 -- -- 78
2020-03-09 06:00:00 7.6 24 Noroeste 41 Oeste 0 -- -- 80
2020-03-09 05:00:00 7.5 22 Noroeste 37 Noroeste 0 -- -- 84
2020-03-09 04:00:00 7.3 20 Noroeste 34 Noroeste 0 -- -- 87
2020-03-09 03:00:00 7.7 23 Noroeste 35 Oeste 0 -- -- 85
2020-03-09 02:00:00 7.2 21 Noroeste 30 Noroeste 0 -- -- 90
2020-03-09 01:00:00 7.2 22 Noroeste 42 Noroeste 0.6 -- -- 97
2020-03-09 00:00:00 8.1 24 Oeste 35 Noroeste 0.6 -- -- 95
2020-03-08 23:00:00 9.5 21 Noroeste 33 Noroeste 0 -- -- 79
2020-03-08 22:00:00 9.6 18 Noroeste 33 Oeste 0 -- -- 78
2020-03-08 21:00:00 9.4 19 Oeste 41 Noroeste 0 -- -- 81
2020-03-08 20:00:00 10 29 Noroeste 42 Noroeste 0 -- -- 80
2020-03-08 19:00:00 10.3 16 Noroeste 30 Norte 0 -- -- 87
2020-03-08 18:00:00 10.6 17 Norte 39 Norte 0 -- -- 88
2020-03-08 17:00:00 11.8 21 Oeste 28 Oeste 0 -- -- 84
2020-03-08 16:00:00 14.8 17 Oeste 28 Oeste 0 -- -- 73
2020-03-08 15:00:00 16 15 Norte 37 Oeste 0 -- -- 70
2020-03-08 14:00:00 17.6 12 Sudoeste 23 Sudoeste 0 -- -- 58
2020-03-08 13:00:00 15.6 3 Este 15 Noroeste 0 -- -- 69
2020-03-08 12:00:00 12.7 8 Noroeste 14 Noroeste 0 -- -- 71
2020-03-08 11:00:00 11.8 5 Noroeste 13 Noroeste 0 -- -- 66
2020-03-08 10:00:00 9.6 3 Sur 11 Norte 0 -- -- 79
2020-03-08 09:00:00 7.1 6 Oeste 8 Sudoeste 0 -- -- 86
2020-03-08 08:00:00 6.1 3 Sudeste 5 Este 0 -- -- 87
2020-03-08 07:00:00 6 0 Calma 10 Sudoeste 0 -- -- 88
2020-03-08 06:00:00 5.4 2 Sudoeste 6 Sudeste 0 -- -- 91
2020-03-08 05:00:00 5.5 4 Sudeste 6 Sudeste 0 -- -- 90
2020-03-08 04:00:00 5.3 4 Sudoeste 7 Sudoeste 0 -- -- 92
2020-03-08 03:00:00 4.7 0 Calma 9 Sur 0 -- -- 92
2020-03-08 02:00:00 5.6 3 Sur 10 Oeste 0 -- -- 89
2020-03-08 01:00:00 5.5 2 Nordeste 5 Oeste 0 -- -- 89
2020-03-08 00:00:00 5.6 2 Sudoeste 7 Sudeste 0 -- -- 89
2020-03-07 23:00:00 6 8 Sudeste 11 Sudeste 0 -- -- 89
2020-03-07 22:00:00 6.2 6 Este 13 Sudeste 0 -- -- 84
2020-03-07 21:00:00 7.2 7 Sudeste 13 Sudeste 0 -- -- 79
2020-03-07 20:00:00 8.4 5 Sudeste 13 Sudeste 0 -- -- 76
2020-03-07 19:00:00 9.8 3 Sudeste 13 Oeste 0 -- -- 72
2020-03-07 18:00:00 12.6 9 Oeste 21 Oeste 0 -- -- 66
2020-03-07 17:00:00 13.5 16 Oeste 25 Oeste 0 -- -- 63
2020-03-07 16:00:00 13.9 16 Oeste 24 Oeste 0 -- -- 63
2020-03-07 15:00:00 12.8 10 Norte 26 Noroeste 0 -- -- 65
2020-03-07 14:00:00 13.3 12 Norte 27 Norte 0 -- -- 67
2020-03-07 13:00:00 11.9 16 Norte 29 Norte 0 -- -- 67
2020-03-07 12:00:00 10.9 22 Noroeste 40 Noroeste 0 -- -- 71
2020-03-07 11:00:00 9.9 8 Noroeste 23 Noroeste 0 -- -- 89
2020-03-07 10:00:00 8.3 10 Noroeste 17 Noroeste 0 -- -- 92
2020-03-07 09:00:00 7.2 13 Noroeste 22 Oeste 0 -- -- 98
2020-03-07 08:00:00 6.5 9 Noroeste 28 Noroeste 0.2 -- -- 100
2020-03-07 07:00:00 6.6 14 Noroeste 24 Noroeste 0.2 -- -- 97
2020-03-07 06:00:00 6.7 9 Norte 17 Norte 0 -- -- 95
2020-03-07 05:00:00 6.9 8 Noroeste 23 Oeste 0 -- -- 95
2020-03-07 04:00:00 6.3 9 Noroeste 36 Oeste 0.2 -- -- 99
2020-03-07 03:00:00 6.1 12 Noroeste 31 Oeste 0.2 -- -- 100
2020-03-07 02:00:00 5.5 10 Norte 20 Oeste 0 -- -- 99
2020-03-07 01:00:00 5.4 12 Noroeste 26 Norte 0 -- -- 96
2020-03-07 00:00:00 5.8 16 Noroeste 31 Noroeste 0 -- -- 86
2020-03-06 23:00:00 6.1 13 Noroeste 42 Oeste 0 -- -- 80
2020-03-06 22:00:00 6 24 Oeste 59 Oeste 0 -- -- 84
2020-03-06 21:00:00 5.5 25 Oeste 48 Oeste 0.4 -- -- 87
2020-03-06 20:00:00 4.9 25 Noroeste 66 Oeste 1 -- -- 95
2020-03-06 19:00:00 5.3 31 Oeste 50 Oeste 0.4 -- -- 94
2020-03-06 18:00:00 4.9 36 Oeste 62 Oeste 1.4 -- -- 95
2020-03-06 17:00:00 4.9 27 Oeste 57 Oeste 1.2 -- -- 95
2020-03-06 16:00:00 4.4 28 Noroeste 61 Noroeste 1.4 -- -- 97
2020-03-06 15:00:00 4.2 46 Noroeste 65 Noroeste 0.8 -- -- 94
2020-03-06 14:00:00 5.1 35 Oeste 76 Oeste 0.4 -- -- 89
2020-03-06 13:00:00 5.7 40 Oeste 68 Oeste 0.4 -- -- 87
2020-03-06 12:00:00 6.4 40 Oeste 65 Oeste 0 -- -- 75
2020-03-06 11:00:00 4.8 33 Oeste 73 Oeste 0.8 -- -- 90
2020-03-06 10:00:00 3.9 40 Oeste 89 Oeste 1.2 -- -- 90
2020-03-06 09:00:00 3.5 40 Oeste 65 Oeste 0.8 -- -- 93
2020-03-06 08:00:00 3.2 45 Oeste 68 Oeste 1.4 -- -- 97
2020-03-06 07:00:00 4.2 38 Oeste 75 Oeste 1.2 -- -- 93
2020-03-06 06:00:00 4.3 39 Oeste 84 Oeste 0.6 -- -- 92
2020-03-06 05:00:00 4.5 36 Oeste 60 Oeste 0.4 -- -- 92
2020-03-06 04:00:00 4.9 36 Oeste 65 Noroeste 1 -- -- 93
2020-03-06 03:00:00 7 46 Oeste 71 Oeste 0.2 -- -- 74
2020-03-06 02:00:00 6.4 34 Oeste 60 Oeste 0.4 -- -- 85
2020-03-06 01:00:00 7 28 Noroeste 43 Noroeste 0 -- -- 81
2020-03-06 00:00:00 6.3 6 Nordeste 18 Sudeste 0 -- -- 80
2020-03-05 23:00:00 5.6 7 Este 12 Nordeste 0 -- -- 93
2020-03-05 22:00:00 5.7 4 Norte 21 Noroeste 0 -- -- 95
2020-03-05 21:00:00 6.6 14 Noroeste 42 Noroeste 0.6 -- -- 94
2020-03-05 20:00:00 7.4 20 Noroeste 49 Oeste 0 -- -- 85
2020-03-05 19:00:00 7.2 29 Oeste 54 Oeste 1 -- -- 89
2020-03-05 18:00:00 7.4 25 Noroeste 44 Oeste 0.2 -- -- 91
2020-03-05 17:00:00 9.2 36 Oeste 66 Oeste 0.2 -- -- 81
2020-03-05 16:00:00 -- 31 Oeste 72 Oeste 0.6 -- -- --
2020-03-05 15:00:00 8.5 51 Oeste 72 Oeste 0.8 -- -- 83
2020-03-05 14:00:00 8.5 55 Oeste 83 Noroeste 0.2 -- -- 86
2020-03-05 13:00:00 9 42 Noroeste 74 Noroeste 0.2 -- -- 87
2020-03-05 12:00:00 11.2 44 Noroeste 59 Noroeste 0 -- -- 63
2020-03-05 11:00:00 11.6 26 Noroeste 47 Noroeste 0 -- -- 74
2020-03-05 10:00:00 9.5 29 Noroeste 45 Noroeste 0 -- -- 86
2020-03-05 09:00:00 8.6 25 Noroeste 54 Noroeste 1.4 -- -- 97
2020-03-05 08:00:00 9.2 45 Noroeste 59 Oeste 3.6 -- -- 98
2020-03-05 07:00:00 10 19 Noroeste 47 Sudoeste 2.4 -- -- 97
2020-03-05 06:00:00 14 19 Sudoeste 55 Oeste 0 -- -- 76
2020-03-05 05:00:00 17.3 14 Sudoeste 50 Sudoeste 0 -- -- 54
2020-03-05 04:00:00 17.3 14 Sudoeste 32 Sur 0 -- -- 53
2020-03-05 03:00:00 17.3 5 Norte 62 Sudoeste 0 -- -- 53
2020-03-05 02:00:00 17.4 19 Sudoeste 62 Sudoeste 0 -- -- 54
2020-03-05 01:00:00 16.3 17 Oeste 44 Oeste 0 -- -- 61
2020-03-05 00:00:00 13 5 Nordeste 14 Sudoeste 0 -- -- 80
2020-03-04 23:00:00 12.5 4 Oeste 9 Este 0 -- -- 87
2020-03-04 22:00:00 12.8 3 Noroeste 9 Sudoeste 0 -- -- 86
2020-03-04 21:00:00 12.8 6 Sudeste 21 Sudeste 0 -- -- 86
2020-03-04 20:00:00 12.8 16 Sudeste 21 Sudeste 0 -- -- 86
2020-03-04 19:00:00 14 12 Sudeste 22 Este 0 -- -- 81
2020-03-04 18:00:00 15.6 14 Sudeste 22 Sudeste 0 -- -- 77
2020-03-04 17:00:00 16.6 12 Oeste 17 Oeste 0 -- -- 71
2020-03-04 16:00:00 17.1 14 Sudoeste 23 Sudoeste 0 -- -- 71
2020-03-04 15:00:00 19 9 Noroeste 20 Noroeste 0 -- -- 58
2020-03-04 14:00:00 20.7 8 Sur 12 Sur 0 -- -- 53
2020-03-04 13:00:00 18.2 4 Este 9 Sudeste 0 -- -- 69
2020-03-04 12:00:00 15.9 3 Sudoeste 8 Sur 0 -- -- 71
2020-03-04 11:00:00 14.7 3 Sur 13 Noroeste 0 -- -- 74
2020-03-04 10:00:00 13.1 4 Sudoeste 15 Este 0 -- -- 84
2020-03-04 09:00:00 12.8 7 Sudoeste 23 Noroeste 0 -- -- 80
2020-03-04 08:00:00 12.3 15 Noroeste 26 Noroeste 0 -- -- 83
2020-03-04 07:00:00 12.1 15 Noroeste 28 Noroeste 0 -- -- 88
2020-03-04 06:00:00 12 16 Oeste 27 Oeste 0 -- -- 90
2020-03-04 05:00:00 11.2 11 Noroeste 22 Oeste 0 -- -- 99
2020-03-04 04:00:00 9.8 7 Oeste 9 Sudoeste 0.2 -- -- 100
2020-03-04 03:00:00 9 0 Calma 5 Oeste 0.8 -- -- 99
2020-03-04 02:00:00 9.2 0 Calma 9 Este 1.4 -- -- 97
2020-03-04 01:00:00 9.8 0 Calma 7 Sudoeste 0.4 -- -- 91
2020-03-04 00:00:00 9.9 3 Noroeste 14 Sudeste 0.2 -- -- 94
2020-03-03 23:00:00 9.9 9 Noroeste 23 Oeste 0 -- -- 94
2020-03-03 22:00:00 10.2 10 Norte 23 Noroeste 0 -- -- 91
2020-03-03 21:00:00 10.4 18 Noroeste 29 Noroeste 0 -- -- 91
2020-03-03 20:00:00 10.6 18 Noroeste 35 Noroeste 0 -- -- 90
2020-03-03 19:00:00 10.9 27 Noroeste 39 Noroeste 0 -- -- 88
2020-03-03 18:00:00 11.2 26 Noroeste 39 Noroeste 0 -- -- 87
2020-03-03 17:00:00 12.2 20 Noroeste 42 Noroeste 0 -- -- 84
2020-03-03 16:00:00 13.2 23 Noroeste 49 Noroeste 0 -- -- 81
2020-03-03 15:00:00 16.1 32 Noroeste 75 Noroeste 0 -- -- 67
2020-03-03 14:00:00 17.3 37 Noroeste 92 Oeste 0 -- -- 62
2020-03-03 13:00:00 17.9 68 Oeste 105 Oeste 0 -- -- 50
2020-03-03 12:00:00 18.2 56 Noroeste 89 Oeste 0 -- -- 46
2020-03-03 11:00:00 18.1 40 Oeste 87 Oeste 0 -- -- 45
2020-03-03 10:00:00 15.5 52 Oeste 91 Noroeste 0 -- -- 66
2020-03-03 09:00:00 10.9 27 Noroeste 39 Noroeste 0.2 -- -- 84
2020-03-03 08:00:00 6.4 9 Norte 34 Nordeste 2 -- -- 100
2020-03-03 07:00:00 4.1 12 Sudeste 25 Este 1 -- -- 99
2020-03-03 06:00:00 4.3 9 Sudeste 17 Este 1.8 -- -- 96
2020-03-03 05:00:00 4.9 6 Sudeste 23 Sudeste 0.6 -- -- 91
2020-03-03 04:00:00 5.5 14 Sudeste 19 Sudeste 0.2 -- -- 82
2020-03-03 03:00:00 6.9 5 Norte 16 Noroeste 0 -- -- 68
2020-03-03 02:00:00 6.7 10 Noroeste 20 Noroeste 0 -- -- 67
2020-03-03 01:00:00 6.8 19 Norte 27 Norte 0 -- -- 69
2020-03-03 00:00:00 7 15 Norte 27 Norte 0 -- -- 67
2020-03-02 23:00:00 6.3 16 Norte 29 Norte 0 -- -- 71
2020-03-02 22:00:00 6.1 19 Noroeste 31 Noroeste 0 -- -- 73
2020-03-02 21:00:00 5.1 12 Noroeste 55 Oeste 0.2 -- -- 80
2020-03-02 20:00:00 5.5 30 Oeste 50 Oeste 0 -- -- 79
2020-03-02 19:00:00 5.9 22 Oeste 40 Oeste 0 -- -- 74
2020-03-02 18:00:00 4.6 14 Norte 81 Noroeste 0.4 -- -- 92
2020-03-02 17:00:00 7.1 32 Oeste 75 Oeste 0.2 -- -- 69
2020-03-02 16:00:00 6.2 28 Noroeste 59 Oeste 0.2 -- -- 90
2020-03-02 15:00:00 4.9 30 Oeste 91 Oeste 0.6 -- -- 95
2020-03-02 14:00:00 5.4 31 Oeste 83 Oeste 0.8 -- -- 90
2020-03-02 13:00:00 4.1 21 Oeste 58 Noroeste 1.6 -- -- 98
2020-03-02 12:00:00 3.5 41 Oeste 72 Oeste 2 -- -- 93
2020-03-02 11:00:00 4.8 35 Oeste 64 Noroeste 0.6 -- -- 86
2020-03-02 10:00:00 4.6 27 Oeste 62 Oeste 1.2 -- -- 88
2020-03-02 09:00:00 3.7 13 Noroeste 67 Oeste 2 -- -- 97
2020-03-02 08:00:00 4.5 24 Noroeste 67 Oeste 1 -- -- 93
2020-03-02 07:00:00 4.9 38 Oeste 90 Oeste 2.6 -- -- 90
2020-03-02 06:00:00 6.1 52 Oeste 89 Oeste 2.8 -- -- 95
2020-03-02 05:00:00 7.1 48 Noroeste 70 Oeste 2.4 -- -- 98
2020-03-02 04:00:00 7.1 36 Noroeste 77 Oeste 4.4 -- -- 97
2020-03-02 03:00:00 7.6 30 Oeste 66 Oeste 6.4 -- -- 100
2020-03-02 02:00:00 7.6 3 Este 19 Noroeste 2.4 -- -- 100
2020-03-02 01:00:00 7.9 6 Sudeste 19 Sudeste 0.4 -- -- 98
2020-03-02 00:00:00 8.2 0 Calma 12 Sudoeste 0.6 -- -- 98
2020-03-01 23:00:00 8.4 4 Sudoeste 13 Sudeste 0.6 -- -- 97
2020-03-01 22:00:00 8.7 6 Este 22 Sudeste 0.2 -- -- 95
2020-03-01 21:00:00 9.2 17 Sudeste 26 Sudeste 0 -- -- 93
2020-03-01 20:00:00 9.7 14 Sudeste 36 Sur 0.2 -- -- 90
2020-03-01 19:00:00 10.3 10 Sudeste 35 Este 0 -- -- 86
2020-03-01 18:00:00 11.6 9 Este 26 Sudeste 0 -- -- 77
2020-03-01 17:00:00 13.7 9 Este 24 Oeste 0 -- -- 67
2020-03-01 16:00:00 15.3 9 Oeste 28 Nordeste 0 -- -- 55
2020-03-01 15:00:00 16.2 18 Nordeste 30 Nordeste 0 -- -- 51
2020-03-01 14:00:00 17.5 10 Noroeste 26 Norte 0 -- -- 39
2020-03-01 13:00:00 16.4 13 Noroeste 41 Noroeste 0 -- -- 43
2020-03-01 12:00:00 15 22 Noroeste 46 Noroeste 0 -- -- 50
2020-03-01 11:00:00 13.7 22 Noroeste 46 Noroeste 0 -- -- 54
2020-03-01 10:00:00 13.9 34 Oeste 55 Oeste 0 -- -- 45
2020-03-01 09:00:00 12.7 19 Oeste 48 Oeste 0 -- -- 47
2020-03-01 08:00:00 12 28 Oeste 76 Oeste 0 -- -- 52
2020-03-01 07:00:00 13.5 50 Oeste 96 Oeste 0 -- -- 44
2020-03-01 06:00:00 10.7 20 Noroeste 33 Oeste 0 -- -- 60
2020-03-01 05:00:00 6.4 5 Noroeste 13 Oeste 0 -- -- 93
2020-03-01 04:00:00 5.7 6 Sur 16 Este 0 -- -- 94
2020-03-01 03:00:00 6.8 2 Oeste 5 Oeste 0 -- -- 92
2020-03-01 02:00:00 7.5 0 Calma 5 Nordeste 0 -- -- 93
2020-03-01 01:00:00 8 0 Calma 9 Este 0 -- -- 91
2020-03-01 00:00:00 8.1 4 Sudoeste 7 Sudeste 0 -- -- 90
2020-02-29 23:00:00 8.3 6 Sudeste 13 Sudeste 0 -- -- 90
2020-02-29 22:00:00 8.5 9 Sudeste 13 Sudeste 0 -- -- 89
2020-02-29 21:00:00 8.8 8 Sudeste 21 Sudeste 0 -- -- 87
2020-02-29 20:00:00 9.2 8 Sudeste 21 Sudeste 0 -- -- 84
2020-02-29 19:00:00 10 9 Este 16 Este 0 -- -- 79
2020-02-29 18:00:00 11 12 Oeste 18 Oeste 0 -- -- 74
2020-02-29 17:00:00 12.3 10 Noroeste 15 Noroeste 0 -- -- 70
2020-02-29 16:00:00 12.5 2 Noroeste 31 Noroeste 0 -- -- 67
2020-02-29 15:00:00 12.1 21 Norte 40 Noroeste 0 -- -- 67
2020-02-29 14:00:00 14 23 Noroeste 48 Oeste 0 -- -- 50
2020-02-29 13:00:00 15.5 21 Noroeste 47 Oeste 0 -- -- 52
2020-02-29 12:00:00 14.6 28 Oeste 43 Oeste 0 -- -- 54
2020-02-29 11:00:00 13.4 15 Noroeste 34 Oeste 0 -- -- 66
2020-02-29 10:00:00 12.7 7 Oeste 21 Sur 0 -- -- 64
2020-02-29 09:00:00 12.8 13 Noroeste 42 Noroeste 0 -- -- 58
2020-02-29 08:00:00 14.4 32 Noroeste 74 Oeste 0 -- -- 49
2020-02-29 07:00:00 17.1 48 Oeste 88 Oeste 0 -- -- 40
2020-02-29 06:00:00 17.7 43 Oeste 109 Sudoeste 0 -- -- 37
2020-02-29 05:00:00 17.4 33 Oeste 107 Sudoeste 0 -- -- 36
2020-02-29 04:00:00 15.4 51 Sudoeste 104 Sudoeste 0 -- -- 37
2020-02-29 03:00:00 16.4 70 Sudoeste 116 Oeste 0 -- -- 27
2020-02-29 02:00:00 17.3 68 Sudoeste 114 Sudoeste 0 -- -- 23
2020-02-29 01:00:00 17.2 50 Sudoeste 98 Sudoeste 0 -- -- 29
2020-02-29 00:00:00 17 20 Nordeste 62 Sudoeste 0 -- -- 30
2020-02-28 23:00:00 17.4 12 Norte 62 Sur 0 -- -- 28
2020-02-28 22:00:00 16.1 21 Norte 35 Norte 0 -- -- 29
2020-02-28 21:00:00 13 15 Oeste 37 Sur 0 -- -- 42
2020-02-28 20:00:00 12.2 7 Oeste 21 Este 0 -- -- 48
2020-02-28 19:00:00 12.4 15 Sudeste 31 Este 0 -- -- 49
2020-02-28 18:00:00 14.5 17 Este 32 Este 0 -- -- 44
2020-02-28 17:00:00 16 16 Este 40 Este 0 -- -- 42
2020-02-28 16:00:00 17.7 21 Este 35 Este 0 -- -- 45
2020-02-28 15:00:00 17.9 18 Este 32 Sudeste 0 -- -- 46
2020-02-28 14:00:00 18.6 12 Sudeste 23 Sudeste 0 -- -- 44
2020-02-28 13:00:00 16.1 0 Calma 15 Sudeste 0 -- -- 52
2020-02-28 12:00:00 14.7 10 Sudeste 14 Sudeste 0 -- -- 55
2020-02-28 11:00:00 12.4 5 Sudeste 13 Sudeste 0 -- -- 74
2020-02-28 10:00:00 8.5 3 Este 5 Este 0 -- -- 94
2020-02-28 09:00:00 7.4 5 Sudeste 7 Sudeste 0 -- -- 94
2020-02-28 08:00:00 7.2 3 Sudeste 9 Sur 0 -- -- 95
2020-02-28 07:00:00 6.7 5 Sudeste 11 Sudeste 0 -- -- 96
2020-02-28 06:00:00 7.2 5 Sudeste 9 Sudeste 0 -- -- 95
2020-02-28 05:00:00 7.8 2 Sur 6 Sudeste 0 -- -- 94
2020-02-28 04:00:00 8.6 0 Calma 6 Sur 0 -- -- 90
2020-02-28 03:00:00 9.1 3 Sudeste 5 Sudeste 0 -- -- 89
2020-02-28 02:00:00 9.5 2 Sudoeste 9 Sudeste 0 -- -- 87
2020-02-28 01:00:00 10 8 Sudeste 9 Sudeste 0 -- -- 85
2020-02-28 00:00:00 10.4 8 Noroeste 15 Norte 0 -- -- 83